Time;durP1;ratioP1;P1;durP2;ratioP2;P2;SDS_P1;SDS_P2;PMS_P1;PMS_P2;Temp;Humidity;BMP_temperature;BMP_pressure;BME280_temperature;BME280_humidity;BME280_pressure;Samples;Min_cycle;Max_cycle;Signal;HPM_P1;HPM_P2
2023/05/07 00:00:09;;;;;;;10.57;9.25;;;;;;;14.29;100.00;101686.63;6071255;23;20024;-82
2023/05/07 00:02:37;;;;;;;10.68;9.68;;;;;;;14.27;100.00;101683.63;6084628;23;20026;-82
2023/05/07 00:05:04;;;;;;;9.90;8.93;;;;;;;14.26;100.00;101690.19;6099268;23;20022;-82
2023/05/07 00:07:31;;;;;;;11.80;9.30;;;;;;;14.26;100.00;101698.22;6100350;23;20019;-82
2023/05/07 00:09:58;;;;;;;10.15;9.15;;;;;;;14.23;100.00;101693.75;6100002;23;20058;-82
2023/05/07 00:12:25;;;;;;;9.65;8.85;;;;;;;14.20;100.00;101686.59;6100214;23;20015;-82
2023/05/07 00:14:51;;;;;;;9.88;8.85;;;;;;;14.19;100.00;101687.78;6074410;23;20030;-82
2023/05/07 00:17:18;;;;;;;9.70;8.80;;;;;;;14.17;100.00;101689.41;6074027;23;20029;-81
2023/05/07 00:19:44;;;;;;;10.20;9.32;;;;;;;14.13;100.00;101689.53;6099761;23;20026;-81
2023/05/07 00:22:11;;;;;;;9.48;8.68;;;;;;;14.10;100.00;101678.97;6099996;23;20019;-82
2023/05/07 00:24:37;;;;;;;13.95;9.40;;;;;;;14.08;100.00;101687.44;6100399;23;20022;-81
2023/05/07 00:27:04;;;;;;;12.20;8.85;;;;;;;14.06;100.00;101691.72;6074187;23;20027;-81
2023/05/07 00:29:30;;;;;;;9.68;8.88;;;;;;;14.00;100.00;101686.19;6099830;23;20441;-81
2023/05/07 00:31:57;;;;;;;9.45;8.45;;;;;;;14.00;100.00;101684.25;6099960;23;20429;-81
2023/05/07 00:34:24;;;;;;;9.65;8.48;;;;;;;13.97;100.00;101674.47;6073160;23;20536;-81
2023/05/07 00:36:50;;;;;;;11.40;9.85;;;;;;;13.96;100.00;101677.59;6050461;23;20026;-82
2023/05/07 00:39:17;;;;;;;10.18;8.88;;;;;;;13.94;100.00;101672.66;6073677;23;20022;-81
2023/05/07 00:41:43;;;;;;;8.90;8.07;;;;;;;13.90;100.00;101673.97;6100296;23;20358;-81
2023/05/07 00:44:10;;;;;;;9.63;8.82;;;;;;;13.87;100.00;101667.56;6074060;23;20085;-81
2023/05/07 00:46:37;;;;;;;9.82;8.45;;;;;;;13.87;100.00;101667.56;6074677;23;20081;-81
2023/05/07 00:49:04;;;;;;;10.10;9.20;;;;;;;13.88;100.00;101665.66;6072881;23;20102;-81
2023/05/07 00:51:32;;;;;;;9.23;8.40;;;;;;;13.86;100.00;101662.66;6074140;23;20079;-82
2023/05/07 00:54:01;;;;;;;13.82;8.85;;;;;;;13.84;100.00;101663.09;6099721;23;20019;-81
2023/05/07 00:56:28;;;;;;;9.15;8.23;;;;;;;13.84;100.00;101668.44;6099880;23;20074;-82
2023/05/07 00:58:55;;;;;;;9.73;8.82;;;;;;;13.84;100.00;101668.44;6099656;23;20018;-82
2023/05/07 01:01:22;;;;;;;9.88;8.73;;;;;;;13.84;100.00;101663.09;6049941;23;20029;-81
2023/05/07 01:03:49;;;;;;;15.77;11.23;;;;;;;13.84;100.00;101667.69;6044619;23;20023;-82
2023/05/07 01:06:16;;;;;;;10.10;8.80;;;;;;;13.82;100.00;101660.13;6070249;23;20891;-82
2023/05/07 01:08:47;;;;;;;9.77;8.77;;;;;;;13.81;100.00;101661.28;6046127;23;20113;-81
2023/05/07 01:11:14;;;;;;;9.57;8.73;;;;;;;13.82;100.00;101656.69;6068904;23;20062;-82
2023/05/07 01:13:41;;;;;;;12.32;8.50;;;;;;;13.81;100.00;101657.88;6069352;23;20090;-82
2023/05/07 01:16:09;;;;;;;9.18;8.38;;;;;;;13.81;100.00;101655.94;6068516;23;20038;-82
2023/05/07 01:18:36;;;;;;;10.25;8.68;;;;;;;13.81;100.00;101660.56;6070371;23;20022;-81
2023/05/07 01:21:04;;;;;;;9.38;8.52;;;;;;;13.79;100.00;101655.63;6068912;23;20411;-82
2023/05/07 01:23:33;;;;;;;10.15;8.95;;;;;;;13.78;100.00;101664.09;6069035;23;20090;-82
2023/05/07 01:26:00;;;;;;;9.57;8.55;;;;;;;13.76;100.00;101659.19;6068549;23;20380;-82
2023/05/07 01:28:28;;;;;;;10.07;9.07;;;;;;;13.77;100.00;101665.28;6045039;23;20019;-81
2023/05/07 01:31:03;;;;;;;10.27;9.25;;;;;;;13.77;100.00;101658.00;6068624;23;20124;-82
2023/05/07 01:33:34;;;;;;;9.80;8.90;;;;;;;13.78;100.00;101664.09;6068525;23;20107;-83
2023/05/07 01:36:06;;;;;;;9.60;8.38;;;;;;;13.77;100.00;101657.25;6069109;23;20024;-82
2023/05/07 01:38:33;;;;;;;11.85;9.05;;;;;;;13.78;100.00;101669.44;6069468;23;20019;-82
2023/05/07 01:40:59;;;;;;;9.35;8.38;;;;;;;13.78;100.00;101656.81;6068877;23;20020;-81
2023/05/07 01:43:26;;;;;;;9.35;8.55;;;;;;;13.78;100.00;101661.44;6068774;23;20549;-81
2023/05/07 01:45:54;;;;;;;9.40;8.65;;;;;;;13.77;100.00;101658.00;6070291;23;20027;-82
2023/05/07 01:48:21;;;;;;;9.32;8.43;;;;;;;13.76;100.00;101663.78;6069383;23;20070;-82
2023/05/07 01:50:48;;;;;;;9.48;8.65;;;;;;;13.76;100.00;101664.53;6069142;23;20015;-81
2023/05/07 01:53:14;;;;;;;9.70;8.80;;;;;;;13.75;100.00;101660.38;6069882;23;20015;-82
2023/05/07 01:55:42;;;;;;;9.50;8.60;;;;;;;13.75;100.00;101663.03;6068874;23;20020;-82
2023/05/07 01:58:09;;;;;;;9.20;8.50;;;;;;;13.76;100.00;101658.44;6068542;23;20019;-82
2023/05/07 02:00:36;;;;;;;11.43;8.85;;;;;;;13.77;100.00;101660.69;6068846;23;20024;-82
2023/05/07 02:03:03;;;;;;;9.77;8.73;;;;;;;13.77;100.00;101655.31;6087143;23;20050;-82
2023/05/07 02:05:38;;;;;;;9.52;8.73;;;;;;;13.77;100.00;101658.00;6075038;23;20026;-82
2023/05/07 02:08:11;;;;;;;10.00;9.20;;;;;;;13.79;100.00;101657.56;6074438;23;20019;-82
2023/05/07 02:10:38;;;;;;;9.93;9.02;;;;;;;13.79;100.00;101666.34;6100646;23;20044;-82
2023/05/07 02:13:06;;;;;;;10.35;9.20;;;;;;;13.78;100.00;101664.84;6074365;23;20402;-81
2023/05/07 02:15:33;;;;;;;9.77;8.90;;;;;;;13.77;100.00;101666.03;6074547;23;20050;-82
2023/05/07 02:18:03;;;;;;;9.38;8.60;;;;;;;13.75;100.00;101665.72;6074571;23;20019;-83
2023/05/07 02:20:30;;;;;;;9.30;8.40;;;;;;;13.74;100.00;101660.81;6074645;23;20427;-82
2023/05/07 02:22:56;;;;;;;10.30;9.27;;;;;;;13.72;100.00;101657.81;6074542;23;20019;-82
2023/05/07 02:25:25;;;;;;;12.23;8.63;;;;;;;13.74;100.00;101655.47;6074039;23;20031;-82
2023/05/07 02:27:52;;;;;;;12.05;9.18;;;;;;;13.73;100.00;101657.38;6074809;23;20382;-82
2023/05/07 02:30:25;;;;;;;10.13;9.30;;;;;;;13.74;100.00;101660.81;6074016;23;20453;-82
2023/05/07 02:32:54;;;;;;;10.70;9.70;;;;;;;13.74;100.00;101658.13;6051295;23;20509;-82
2023/05/07 02:35:20;;;;;;;10.98;9.93;;;;;;;13.71;100.00;101657.06;6074976;23;20071;-86
2023/05/07 02:37:47;;;;;;;10.73;8.98;;;;;;;13.74;100.00;101658.88;6074664;23;20449;-85
2023/05/07 02:40:14;;;;;;;10.07;9.18;;;;;;;13.73;100.00;101652.03;6050203;23;20019;-85
2023/05/07 02:42:40;;;;;;;10.20;9.23;;;;;;;13.73;100.00;101652.03;6074998;23;20103;-85
2023/05/07 02:45:07;;;;;;;9.73;8.75;;;;;;;13.74;100.00;101660.81;6073502;23;20078;-84
2023/05/07 02:47:34;;;;;;;11.32;9.73;;;;;;;13.74;100.00;101658.88;6050777;23;20023;-84
2023/05/07 02:50:02;;;;;;;10.57;9.68;;;;;;;13.73;100.00;101653.97;6050430;23;20071;-83
2023/05/07 02:52:29;;;;;;;10.60;9.50;;;;;;;13.72;100.00;101647.88;6099976;23;20074;-83
2023/05/07 02:54:55;;;;;;;10.23;9.32;;;;;;;13.73;100.00;101645.94;6074017;23;20033;-83
2023/05/07 02:57:22;;;;;;;10.48;9.48;;;;;;;13.73;100.00;101641.34;6074199;23;20465;-82
2023/05/07 02:59:49;;;;;;;11.30;10.10;;;;;;;13.73;100.00;101648.63;6074042;23;20420;-82
2023/05/07 03:02:16;;;;;;;10.80;9.60;;;;;;;13.72;100.00;101660.50;6073255;23;20404;-82
2023/05/07 03:04:42;;;;;;;10.90;9.90;;;;;;;13.69;100.00;101662.88;6074304;23;20027;-82
2023/05/07 03:07:09;;;;;;;10.65;9.57;;;;;;;13.68;100.00;101660.63;6049853;23;20079;-82
2023/05/07 03:09:36;;;;;;;10.63;9.63;;;;;;;13.66;100.00;101658.38;6074731;23;20023;-82
2023/05/07 03:12:02;;;;;;;11.50;10.30;;;;;;;13.66;100.00;101654.97;6074227;23;20153;-82
2023/05/07 03:14:29;;;;;;;10.77;9.73;;;;;;;13.64;100.00;101644.72;6073220;23;20114;-82
2023/05/07 03:16:55;;;;;;;11.27;10.18;;;;;;;13.64;100.00;101649.31;6074446;23;20090;-82
2023/05/07 03:19:22;;;;;;;11.57;10.38;;;;;;;13.62;100.00;101649.75;6100462;23;20025;-83
2023/05/07 03:21:49;;;;;;;10.23;8.93;;;;;;;13.63;100.00;101653.91;6074491;23;20030;-82
2023/05/07 03:24:15;;;;;;;11.15;10.15;;;;;;;13.62;100.00;101647.06;6073753;23;20034;-82
2023/05/07 03:26:42;;;;;;;11.55;10.38;;;;;;;13.62;100.00;101651.69;6100506;23;20019;-82
2023/05/07 03:29:08;;;;;;;10.70;9.70;;;;;;;13.59;100.00;101653.31;6073355;23;20461;-82
2023/05/07 03:31:35;;;;;;;11.07;10.07;;;;;;;13.57;100.00;101650.34;6050656;23;20023;-82
2023/05/07 03:34:02;;;;;;;11.25;10.13;;;;;;;13.56;100.00;101651.53;6074426;23;20023;-82
2023/05/07 03:36:28;;;;;;;12.05;10.38;;;;;;;13.55;100.00;101654.63;6050424;23;20349;-82
2023/05/07 03:38:56;;;;;;;11.02;9.73;;;;;;;13.54;100.00;101651.22;6073925;23;20114;-82
2023/05/07 03:41:25;;;;;;;11.20;10.10;;;;;;;13.54;100.00;101650.47;6073796;23;20094;-81
2023/05/07 03:43:53;;;;;;;11.40;10.30;;;;;;;13.53;100.00;101655.06;6074112;23;20019;-82
2023/05/07 03:46:19;;;;;;;12.45;11.15;;;;;;;13.52;100.00;101644.81;6073681;23;20030;-82
2023/05/07 03:48:46;;;;;;;12.23;10.57;;;;;;;13.51;100.00;101652.09;6074676;23;20023;-82
2023/05/07 03:51:15;;;;;;;10.90;9.90;;;;;;;13.51;100.00;101657.44;6073461;23;20038;-81
2023/05/07 03:53:41;;;;;;;10.88;9.82;;;;;;;13.50;100.00;101649.84;6074062;23;20027;-82
2023/05/07 03:56:08;;;;;;;13.30;10.65;;;;;;;13.48;100.00;101652.22;6073614;23;20414;-82
2023/05/07 03:58:37;;;;;;;14.20;10.40;;;;;;;13.50;100.00;101657.88;6050373;23;20019;-82
2023/05/07 04:01:07;;;;;;;12.40;10.77;;;;;;;13.49;100.00;101654.44;6073373;23;20059;-81
2023/05/07 04:03:34;;;;;;;12.45;11.15;;;;;;;13.49;100.00;101662.47;6074250;23;20106;-82
2023/05/07 04:06:01;;;;;;;13.02;11.70;;;;;;;13.50;100.00;101658.63;6073662;23;20109;-83
2023/05/07 04:08:29;;;;;;;14.65;10.90;;;;;;;13.48;100.00;101662.91;6073686;23;20030;-81
2023/05/07 04:10:56;;;;;;;12.52;11.23;;;;;;;13.51;100.00;101676.16;6073619;23;20038;-82
2023/05/07 04:13:25;;;;;;;15.35;10.27;;;;;;;13.51;100.00;101672.72;6073100;23;20029;-83
2023/05/07 04:15:52;;;;;;;12.00;10.80;;;;;;;13.52;100.00;101674.97;6098299;23;20729;-83
2023/05/07 04:18:19;;;;;;;12.25;10.50;;;;;;;13.53;100.00;101673.78;6073347;23;20023;-81
2023/05/07 04:20:49;;;;;;;12.60;11.35;;;;;;;13.54;100.00;101672.59;6074218;23;20038;-81
2023/05/07 04:23:16;;;;;;;13.85;11.65;;;;;;;13.55;100.00;101678.72;6099636;23;20019;-81
2023/05/07 04:25:42;;;;;;;12.73;11.45;;;;;;;13.54;100.00;101672.59;6073798;23;20417;-81
2023/05/07 04:28:18;;;;;;;12.70;11.57;;;;;;;13.55;100.00;101671.44;6073196;23;20046;-83
2023/05/07 04:30:45;;;;;;;17.25;11.65;;;;;;;13.57;100.00;101665.66;6074254;23;20015;-82
2023/05/07 04:33:16;;;;;;;13.40;11.00;;;;;;;13.58;100.00;101680.50;6073582;23;20033;-82
2023/05/07 04:35:43;;;;;;;12.88;11.68;;;;;;;13.59;100.00;101679.31;6050889;23;20499;-82
2023/05/07 04:38:10;;;;;;;14.00;11.75;;;;;;;13.59;100.00;101677.41;6073729;23;20015;-82
2023/05/07 04:40:38;;;;;;;13.20;11.60;;;;;;;13.60;100.00;101680.78;6099586;23;20079;-82
2023/05/07 04:43:08;;;;;;;13.98;11.38;;;;;;;13.61;100.00;101669.66;6073427;23;20029;-83
2023/05/07 04:45:42;;;;;;;12.80;11.50;;;;;;;13.62;100.00;101673.81;6074415;23;20014;-83
2023/05/07 04:48:09;;;;;;;12.15;11.07;;;;;;;13.64;100.00;101674.13;6097646;23;20022;-81
2023/05/07 04:50:38;;;;;;;13.10;11.18;;;;;;;13.64;100.00;101674.13;6073797;23;20026;-83
2023/05/07 04:53:06;;;;;;;16.20;12.07;;;;;;;13.65;100.00;101675.63;6073556;23;20022;-84
2023/05/07 04:55:32;;;;;;;12.70;11.38;;;;;;;13.64;100.00;101687.50;6099811;23;20023;-84
2023/05/07 04:58:01;;;;;;;14.77;12.82;;;;;;;13.65;100.00;101689.00;6074026;23;20027;-83
2023/05/07 05:00:29;;;;;;;13.25;11.88;;;;;;;13.65;100.00;101693.59;6073695;23;20034;-83
2023/05/07 05:02:57;;;;;;;13.77;12.10;;;;;;;13.64;100.00;101690.19;6073229;23;20091;-83
2023/05/07 05:05:24;;;;;;;15.52;11.85;;;;;;;13.65;100.00;101694.34;6073394;23;20499;-83
2023/05/07 05:07:53;;;;;;;15.30;11.23;;;;;;;13.64;100.00;101692.88;6073789;23;20034;-83
2023/05/07 05:10:21;;;;;;;12.85;11.60;;;;;;;13.65;100.00;101694.34;6048663;23;20015;-83
2023/05/07 05:12:50;;;;;;;13.95;11.82;;;;;;;13.63;100.00;101691.38;6074440;23;20061;-83
2023/05/07 05:15:17;;;;;;;12.05;10.85;;;;;;;13.63;100.00;101701.31;6073164;23;20057;-83
2023/05/07 05:17:44;;;;;;;14.40;12.10;;;;;;;13.65;100.00;101698.97;6074108;23;20477;-83
2023/05/07 05:20:11;;;;;;;12.57;11.35;;;;;;;13.64;100.00;101702.81;6099133;23;20362;-83
2023/05/07 05:22:41;;;;;;;14.13;11.60;;;;;;;13.64;100.00;101703.56;6073759;23;20362;-83
2023/05/07 05:25:09;;;;;;;12.65;11.45;;;;;;;13.66;100.00;101703.13;6072332;23;20019;-83
2023/05/07 05:27:36;;;;;;;12.88;11.68;;;;;;;13.66;100.00;101701.19;6074531;23;20023;-83
2023/05/07 05:30:05;;;;;;;16.65;12.02;;;;;;;13.69;100.00;101700.31;6073234;23;20389;-83
2023/05/07 05:32:33;;;;;;;16.98;12.43;;;;;;;13.70;100.00;101709.09;6050270;23;20102;-83
2023/05/07 05:35:00;;;;;;;14.05;12.55;;;;;;;13.72;100.00;101709.41;6073133;23;20029;-83
2023/05/07 05:37:30;;;;;;;16.20;12.85;;;;;;;13.74;100.00;101714.31;6074341;23;20019;-83
2023/05/07 05:39:57;;;;;;;13.73;11.90;;;;;;;13.75;100.00;101713.16;6050060;23;20027;-83
2023/05/07 05:42:25;;;;;;;24.98;12.80;;;;;;;13.74;100.00;101720.44;6051018;23;20027;-84
2023/05/07 05:44:53;;;;;;;15.13;12.55;;;;;;;13.78;100.00;101721.03;6075311;23;20479;-83
2023/05/07 05:47:20;;;;;;;12.80;11.60;;;;;;;13.85;100.00;101728.06;6099967;23;20445;-83
2023/05/07 05:49:46;;;;;;;16.45;12.57;;;;;;;13.89;100.00;101723.34;6074943;23;20022;-82
2023/05/07 05:52:16;;;;;;;14.93;12.60;;;;;;;13.92;100.00;101735.84;6050447;23;20030;-83
2023/05/07 05:54:43;;;;;;;13.40;12.13;;;;;;;13.95;100.00;101737.66;6074574;23;20476;-83
2023/05/07 05:57:10;;;;;;;15.23;13.70;;;;;;;13.96;100.00;101739.91;6100824;23;20015;-90
2023/05/07 05:59:36;;;;;;;14.65;13.15;;;;;;;13.99;100.00;101738.28;6076643;23;20015;-86
2023/05/07 06:02:03;;;;;;;14.30;12.52;;;;;;;14.01;100.00;101743.91;6075461;23;20093;-86
2023/05/07 06:04:29;;;;;;;15.65;12.82;;;;;;;14.00;100.00;101739.75;6076722;23;20065;-83
2023/05/07 06:06:57;;;;;;;14.60;13.15;;;;;;;14.02;100.00;101746.16;6075091;23;20122;-84
2023/05/07 06:09:24;;;;;;;14.35;12.57;;;;;;;14.03;100.00;101746.91;6075171;23;20062;-85
2023/05/07 06:11:52;;;;;;;14.73;13.35;;;;;;;14.03;100.00;101754.94;6075257;23;20027;-84
2023/05/07 06:14:19;;;;;;;14.43;12.93;;;;;;;14.02;100.00;101756.84;6075279;23;20131;-85
2023/05/07 06:16:45;;;;;;;14.75;13.32;;;;;;;14.01;100.00;101752.69;6075628;23;20022;-81
2023/05/07 06:19:12;;;;;;;15.80;13.60;;;;;;;14.00;100.00;101753.13;6075612;23;20407;-84
2023/05/07 06:21:40;;;;;;;15.75;13.73;;;;;;;14.01;100.00;101751.94;6075382;23;20099;-83
2023/05/07 06:24:07;;;;;;;14.63;13.32;;;;;;;14.02;100.00;101745.41;6074764;23;20091;-83
2023/05/07 06:26:34;;;;;;;14.75;13.25;;;;;;;14.09;100.00;101752.44;6051686;23;20034;-84
2023/05/07 06:29:01;;;;;;;15.30;13.68;;;;;;;14.12;100.00;101749.63;6075147;23;20018;-84
2023/05/07 06:31:33;;;;;;;14.80;13.35;;;;;;;14.17;100.00;101745.63;6051714;23;20103;-85
2023/05/07 06:34:06;;;;;;;15.82;14.23;;;;;;;14.19;100.00;101751.28;6075667;23;20438;-85
2023/05/07 06:36:36;;;;;;;15.40;13.80;;;;;;;14.20;100.00;101750.09;6075377;23;20055;-86
2023/05/07 06:39:11;;;;;;;16.00;14.30;;;;;;;14.23;100.00;101746.56;6075120;23;20033;-85
2023/05/07 06:41:38;;;;;;;15.13;13.63;;;;;;;14.22;100.00;101755.78;6075601;23;20029;-88
2023/05/07 06:44:14;;;;;;;15.65;13.93;;;;;;;14.22;100.00;101751.16;6075222;23;20019;-84
2023/05/07 06:46:45;;;;;;;16.17;13.80;;;;;;;14.20;100.00;101755.47;6075474;23;20031;-84
2023/05/07 06:49:13;;;;;;;15.77;14.18;;;;;;;14.22;100.00;101750.41;6075123;23;20019;-90
2023/05/07 06:51:40;;;;;;;15.70;14.05;;;;;;;14.25;100.00;101746.88;6074892;23;20023;-84
2023/05/07 06:54:07;;;;;;;14.93;13.48;;;;;;;14.28;100.00;101746.72;6075130;23;20087;-83
2023/05/07 06:56:36;;;;;;;15.45;13.57;;;;;;;14.34;100.00;101752.25;6075151;23;20441;-81
2023/05/07 06:59:04;;;;;;;15.18;13.68;;;;;;;14.42;100.00;101755.41;6051329;23;20019;-82
2023/05/07 07:01:35;;;;;;;16.08;14.48;;;;;;;14.53;100.00;101753.09;6075531;23;20477;-81
2023/05/07 07:04:03;;;;;;;15.18;13.65;;;;;;;14.59;100.00;101751.31;6051641;23;20042;-84
2023/05/07 07:06:31;;;;;;;15.77;14.25;;;;;;;14.64;100.00;101753.41;6074490;23;20024;-82
2023/05/07 07:09:00;;;;;;;17.45;13.95;;;;;;;14.68;100.00;101760.13;6074774;23;20047;-81
2023/05/07 07:11:27;;;;;;;15.75;14.05;;;;;;;14.80;100.00;101753.16;6075169;23;20023;-84
2023/05/07 07:13:54;;;;;;;16.20;14.25;;;;;;;14.94;100.00;101752.59;6075134;23;20098;-81
2023/05/07 07:16:21;;;;;;;15.50;13.93;;;;;;;15.02;100.00;101755.72;6075381;23;20073;-79
2023/05/07 07:18:50;;;;;;;14.65;13.25;;;;;;;15.12;100.00;101756.50;6075359;23;20030;-81
2023/05/07 07:21:18;;;;;;;15.45;13.85;;;;;;;15.22;100.00;101757.97;6074215;23;20038;-83
2023/05/07 07:23:45;;;;;;;14.75;13.25;;;;;;;15.32;100.00;101756.78;6075097;23;20067;-84
2023/05/07 07:26:12;;;;;;;16.38;13.88;;;;;;;15.40;100.00;101757.97;6100873;23;20019;-83
2023/05/07 07:28:43;;;;;;;16.83;14.80;;;;;;;15.46;100.00;101752.75;6074807;23;20059;-83
2023/05/07 07:31:12;;;;;;;14.88;13.45;;;;;;;15.49;100.00;101755.28;6074635;23;20023;-83
2023/05/07 07:33:39;;;;;;;15.65;13.80;;;;;;;15.61;100.00;101756.31;6101022;23;20022;-84
2023/05/07 07:36:07;;;;;;;14.65;13.25;;;;;;;15.76;99.42;101765.25;6073901;23;20079;-82
2023/05/07 07:38:34;;;;;;;15.30;13.80;;;;;;;15.92;98.87;101762.25;6098865;23;20019;-81
2023/05/07 07:41:02;;;;;;;15.90;14.27;;;;;;;16.14;97.73;101761.28;6074389;23;20034;-80
2023/05/07 07:43:29;;;;;;;14.88;13.23;;;;;;;16.24;96.37;101762.75;6074582;23;20023;-81
2023/05/07 07:45:56;;;;;;;15.00;13.52;;;;;;;16.30;95.63;101769.75;6100536;23;20019;-81
2023/05/07 07:48:23;;;;;;;15.75;13.20;;;;;;;16.46;94.65;101767.88;6074782;23;20361;-79
2023/05/07 07:50:53;;;;;;;14.65;13.35;;;;;;;16.50;94.53;101760.38;6074497;23;20022;-81
2023/05/07 07:53:20;;;;;;;13.85;12.45;;;;;;;16.62;93.46;101773.63;6074604;23;20019;-80
2023/05/07 07:55:47;;;;;;;14.77;13.15;;;;;;;16.71;92.77;101775.53;6074549;23;20019;-80
2023/05/07 07:58:16;;;;;;;14.10;12.40;;;;;;;16.90;93.08;101779.59;6074291;23;20455;-80
2023/05/07 08:00:43;;;;;;;16.92;13.38;;;;;;;16.97;91.39;101773.88;6074427;23;20023;-81
2023/05/07 08:03:11;;;;;;;14.88;13.48;;;;;;;17.00;90.87;101777.59;6069566;23;20026;-80
2023/05/07 08:05:43;;;;;;;14.45;12.93;;;;;;;17.00;92.03;101782.97;6069939;23;20106;-80
2023/05/07 08:08:10;;;;;;;14.75;12.80;;;;;;;16.98;90.89;101780.75;6069543;23;20023;-81
2023/05/07 08:10:39;;;;;;;14.88;13.30;;;;;;;16.92;90.88;101781.84;6070137;23;20051;-81
2023/05/07 08:13:12;;;;;;;14.95;13.50;;;;;;;16.89;90.82;101788.88;6070195;23;20023;-81
2023/05/07 08:15:40;;;;;;;14.38;13.07;;;;;;;16.83;90.49;101782.63;6069981;23;20023;-80
2023/05/07 08:18:07;;;;;;;15.32;13.82;;;;;;;16.82;91.02;101789.19;6071162;23;20050;-81
2023/05/07 08:20:39;;;;;;;16.35;14.20;;;;;;;16.76;91.93;101785.69;6070184;23;20031;-81
2023/05/07 08:23:08;;;;;;;14.77;13.38;;;;;;;16.76;92.48;101791.06;6069543;23;20504;-85
2023/05/07 08:25:37;;;;;;;14.73;13.35;;;;;;;16.73;92.52;101783.91;6070146;23;20027;-82
2023/05/07 08:28:04;;;;;;;15.50;14.10;;;;;;;16.72;92.58;101781.66;6069412;23;20055;-82
2023/05/07 08:30:33;;;;;;;15.07;13.48;;;;;;;16.73;92.65;101783.91;6072058;23;20055;-81
2023/05/07 08:33:00;;;;;;;15.52;14.13;;;;;;;16.74;92.33;101787.34;6069244;23;20454;-82
2023/05/07 08:35:27;;;;;;;16.20;14.57;;;;;;;16.80;93.63;101794.28;6070449;23;20050;-84
2023/05/07 08:37:54;;;;;;;16.40;14.77;;;;;;;16.82;92.72;101794.59;6070176;23;20470;-84
2023/05/07 08:40:28;;;;;;;16.02;13.93;;;;;;;16.86;92.54;101797.84;6046195;23;20023;-83
2023/05/07 08:42:58;;;;;;;16.25;14.52;;;;;;;16.82;93.13;101789.19;6069898;23;20051;-83
2023/05/07 08:45:27;;;;;;;15.57;14.15;;;;;;;16.87;93.63;101785.88;6070124;23;20042;-81
2023/05/07 08:47:58;;;;;;;15.70;14.15;;;;;;;16.92;94.18;101785.25;6071100;23;20445;-84
2023/05/07 08:50:30;;;;;;;17.10;15.43;;;;;;;16.97;94.30;101790.00;6069715;23;20481;-83
2023/05/07 08:52:57;;;;;;;17.13;15.43;;;;;;;16.98;94.14;101788.81;6069685;23;20098;-83
2023/05/07 08:55:24;;;;;;;16.92;15.05;;;;;;;16.95;93.64;101792.41;6070159;23;20418;-82
2023/05/07 08:57:52;;;;;;;16.02;14.48;;;;;;;16.90;93.47;101793.03;6070010;23;20428;-83
2023/05/07 09:00:19;;;;;;;16.42;14.73;;;;;;;16.85;93.98;101795.63;6069587;23;20023;-83
2023/05/07 09:02:49;;;;;;;16.77;15.13;;;;;;;16.84;94.86;101794.13;6068923;23;20023;-84
2023/05/07 09:05:15;;;;;;;16.60;15.02;;;;;;;16.87;94.72;101796.66;6045735;23;20506;-84
2023/05/07 09:07:42;;;;;;;17.15;14.70;;;;;;;16.92;94.35;101796.03;6069859;23;20023;-82
2023/05/07 09:10:10;;;;;;;18.95;15.38;;;;;;;16.99;94.58;101790.31;6069396;23;20102;-83
2023/05/07 09:12:39;;;;;;;16.67;14.73;;;;;;;17.02;94.24;101785.22;6069310;23;20028;-81
2023/05/07 09:15:08;;;;;;;16.95;15.25;;;;;;;17.16;95.36;101784.53;6069489;23;20484;-80
2023/05/07 09:17:35;;;;;;;17.40;14.93;;;;;;;17.22;94.21;101790.72;6069375;23;20485;-84
2023/05/07 09:20:06;;;;;;;16.30;14.60;;;;;;;17.23;93.27;101794.91;6069675;23;20087;-85
2023/05/07 09:22:39;;;;;;;14.95;13.45;;;;;;;17.21;91.87;101791.94;6069777;23;20534;-84
2023/05/07 09:25:09;;;;;;;14.38;11.95;;;;;;;17.27;90.27;101792.78;6069775;23;20030;-81
2023/05/07 09:27:37;;;;;;;13.80;12.40;;;;;;;17.33;90.02;101799.03;6094287;23;20027;-82
2023/05/07 09:30:08;;;;;;;14.88;13.40;;;;;;;17.39;90.12;101794.50;6071339;23;20098;-83
2023/05/07 09:32:37;;;;;;;;;;;;;;;17.44;90.74;101801.94;6069678;23;20031;-82
2023/05/07 09:35:06;;;;;;;14.18;12.85;;;;;;;17.38;89.13;101805.72;6069329;23;19922;-81
2023/05/07 09:37:33;;;;;;;15.13;13.73;;;;;;;17.41;90.32;101800.16;6069745;23;20079;-87
2023/05/07 09:40:00;;;;;;;14.07;12.57;;;;;;;17.49;90.14;101800.56;6069754;23;20027;-82
2023/05/07 09:42:29;;;;;;;14.27;12.98;;;;;;;17.44;88.80;101803.88;6069014;23;20030;-80
2023/05/07 09:44:59;;;;;;;198.18;141.43;;;;;;;17.56;89.37;101802.88;6067597;23;20023;-80
2023/05/07 09:47:32;;;;;;;17.08;15.38;;;;;;;17.56;87.56;101800.94;6069510;23;20023;-81
2023/05/07 09:50:05;;;;;;;15.48;13.98;;;;;;;17.60;86.77;101798.78;6069152;23;20107;-83
2023/05/07 09:52:35;;;;;;;14.25;12.85;;;;;;;17.60;86.78;101806.88;6069588;23;20079;-83
2023/05/07 09:55:05;;;;;;;;;;;;;;;17.67;87.24;101808.47;6069963;23;20015;-83
2023/05/07 09:57:33;;;;;;;14.15;12.80;;;;;;;17.71;86.87;101813.69;6069890;23;19922;-83
2023/05/07 10:00:05;;;;;;;17.15;13.00;;;;;;;17.81;87.09;101812.41;6071194;23;20026;-83
2023/05/07 10:02:49;;;;;;;14.63;13.13;;;;;;;17.96;87.47;101816.59;6086448;23;20393;-83
2023/05/07 10:05:20;;;;;;;15.27;13.90;;;;;;;18.03;85.47;101812.03;6074186;23;20349;-81
2023/05/07 10:07:48;;;;;;;16.92;14.75;;;;;;;18.01;84.50;101820.56;6073925;23;20026;-81
2023/05/07 10:10:17;;;;;;;15.35;13.90;;;;;;;18.09;84.95;101815.56;6074706;23;20494;-82
2023/05/07 10:12:46;;;;;;;16.08;14.48;;;;;;;18.23;84.96;101812.84;6075306;23;20030;-82
2023/05/07 10:15:19;;;;;;;16.05;14.55;;;;;;;18.35;83.77;101819.16;6074906;23;20019;-81
2023/05/07 10:17:51;;;;;;;16.55;14.85;;;;;;;18.50;83.45;101819.13;6076973;23;20436;-84
2023/05/07 10:20:18;;;;;;;16.08;14.38;;;;;;;18.56;82.73;101818.00;6075726;23;20019;-83
2023/05/07 10:22:49;;;;;;;16.58;14.65;;;;;;;18.58;83.33;101820.97;6076982;23;20465;-82
2023/05/07 10:25:25;;;;;;;15.90;14.43;;;;;;;18.69;82.50;101817.72;6076506;23;20564;-81
2023/05/07 10:27:56;;;;;;;16.80;14.85;;;;;;;18.85;81.49;101819.13;6076142;23;20034;-83
2023/05/07 10:30:39;;;;;;;19.17;14.00;;;;;;;18.91;80.33;101817.25;6102104;23;20023;-81
2023/05/07 10:33:10;;;;;;;16.10;14.50;;;;;;;18.98;81.34;101822.25;6076823;23;20054;-82
2023/05/07 10:35:43;;;;;;;15.18;13.80;;;;;;;19.11;79.27;101821.94;6075706;23;20098;-80
2023/05/07 10:38:11;;;;;;;15.50;13.90;;;;;;;19.27;78.82;101818.66;6075932;23;20019;-82
2023/05/07 10:40:40;;;;;;;16.20;13.90;;;;;;;19.46;79.29;101813.72;6100142;23;20090;-83
2023/05/07 10:43:07;;;;;;;18.27;14.15;;;;;;;19.65;77.89;101810.25;6075163;23;20053;-81
2023/05/07 10:46:23;;;;;;;15.63;13.93;;;;;;;19.90;77.85;101813.44;6102051;23;20025;-78
2023/05/07 10:49:00;;;;;;;15.15;13.65;;;;;;;20.13;76.03;101809.69;6075627;23;20030;-78
2023/05/07 10:51:32;;;;;;;16.15;14.00;;;;;;;20.31;73.76;101817.44;6075730;23;20480;-80
2023/05/07 10:54:10;;;;;;;14.85;13.45;;;;;;;20.51;73.23;101816.59;6075332;23;20029;-78
2023/05/07 10:56:44;;;;;;;14.10;12.90;;;;;;;20.67;72.55;101819.91;6100087;23;20069;-82
2023/05/07 10:59:27;;;;;;;14.05;12.65;;;;;;;20.79;71.54;101818.72;6052427;23;20106;-82
2023/05/07 11:01:58;;;;;;;15.18;13.50;;;;;;;20.75;70.93;101813.53;6074203;23;20038;-82
2023/05/07 11:05:21;;;;;;;14.38;12.88;;;;;;;20.80;71.44;101806.66;6086091;23;20046;-81
2023/05/07 11:08:52;;;;;;;14.80;13.35;;;;;;;20.99;72.54;101807.75;6078941;23;20027;-82
2023/05/07 11:11:47;;;;;;;15.15;13.52;;;;;;;21.00;71.65;101814.63;6101071;23;20047;-81
2023/05/07 11:14:40;;;;;;;20.83;14.35;;;;;;;20.97;70.38;101813.63;6097717;23;20031;-81